ADDS METAR Data INFO
IDs: Format: Raw Decoded Include TAF

Data at: 0105 UTC 21 Oct 2017

KRFD 210054Z 16011KT 10SM FEW220 OVC250 19/09 A3001 RMK AO2 SLP163 T01890089
KRFD 202354Z 18009KT 10SM FEW150 OVC250 20/09 A3002 RMK AO2 SLP165 T02000094 10261 20200 55005
KRFD 202254Z 17009KT 10SM FEW190 OVC250 22/09 A3001 RMK AO2 SLP162 T02220094
KRFD 202154Z 18011KT 10SM OVC250 23/10 A3003 RMK AO2 SLP167 T02330100
KRFD 202054Z 19013KT 10SM BKN250 24/08 A3003 RMK AO2 SLP168 T02440083 56022
KRFD 201954Z 20014G20KT 10SM BKN250 25/08 A3005 RMK AO2 SLP173 T02500083
KRFD 201854Z 20013KT 10SM BKN250 26/09 A3007 RMK AO2 SLP181 T02560094
KRFD 201754Z 21008KT 10SM BKN250 24/11 A3010 RMK AO2 SLP191 T02390106 10239 20094 58020
KRFD 201654Z 19012KT 10SM SCT250 23/11 A3013 RMK AO2 SLP201 T02280106
KRFD 201554Z 22006KT 10SM SCT250 19/11 A3015 RMK AO2 SLP210 T01940106
KRFD 201454Z 20009KT 10SM SCT250 17/11 A3016 RMK AO2 SLP214 T01720106 50003
KRFD 201354Z 20004KT 10SM BKN250 14/10 A3016 RMK AO2 SLP215 T01390100
KRFD 201254Z 17004KT 10SM BKN250 10/08 A3016 RMK AO2 SLP215 T01000078
KRFD 201154Z 16004KT 10SM SCT250 10/07 A3015 RMK AO2 SLP212 T01000072 10117 20094 51004
KRFD 201054Z 16004KT 10SM CLR 10/07 A3015 RMK AO2 SLP211 T01000072
KRFD 200954Z 16004KT 10SM CLR 09/07 A3015 RMK AO2 SLP209 T00940067
KRFD 200854Z 15004KT 10SM CLR 11/06 A3014 RMK AO2 SLP206 T01060061 50002
KRFD 200754Z 16004KT 10SM CLR 10/06 A3014 RMK AO2 SLP207 T01000056
KRFD 200654Z 16004KT 10SM CLR 11/05 A3014 RMK AO2 SLP207 T01060050
KRFD 200554Z 16003KT 10SM CLR 11/04 A3013 RMK AO2 SLP203 T01110039 10150 20111 402170061 57002
KRFD 200454Z 18005KT 10SM CLR 12/03 A3014 RMK AO2 SLP205 T01220028
KRFD 200354Z 17007KT 10SM SCT250 13/02 A3014 RMK AO2 SLP205 T01280022
KRFD 200254Z 15007KT 10SM SCT250 14/02 A3014 RMK AO2 SLP207 T01390017 58003
KRFD 200154Z 16004KT 10SM FEW250 13/02 A3014 RMK AO2 SLP209 T01330017
KRFD 200054Z 14006KT 10SM SCT250 14/02 A3015 RMK AO2 SLP211 T01390017
KRFD 192354Z 14005KT 10SM BKN250 15/02 A3015 RMK AO2 SLP211 T01500022 10217 20144 56001
KRFD 192254Z 17007KT 10SM BKN250 17/02 A3015 RMK AO2 SLP210 T01720022
KRFD 192154Z 14006KT 10SM BKN250 21/00 A3015 RMK AO2 SLP209 T02110000
KRFD 192054Z 15004KT 10SM BKN250 22/M01 A3015 RMK AO2 SLP209 T02171006 56011
KRFD 191954Z VRB03KT 10SM BKN250 22/M02 A3015 RMK AO2 SLP210 T02171022
KRFD 191854Z VRB03KT 10SM BKN250 22/M02 A3017 RMK AO2 SLP216 T02171022
KRFD 191754Z 00000KT 10SM BKN250 21/M02 A3018 RMK AO2 SLP220 T02061017 10206 20061 58003
KRFD 191654Z VRB03KT 10SM BKN250 18/M02 A3020 RMK AO2 SLP228 T01831022
KRFD 191554Z 06005KT 10SM SCT250 17/M01 A3020 RMK AO2 SLP226 T01721011
KRFD 191454Z 00000KT 10SM BKN250 13/08 A3019 RMK AO2 SLP226 T01330078 51021
KRFD 191354Z 17003KT 10SM BKN250 09/08 A3018 RMK AO2 SLP220 T00940078